sensor_id;sensor_type;location;lat;lon;timestamp;pressure;altitude;pressure_sealevel;temperature;humidity
64253;BME280;50592;52.958;-7.470;2023-08-30T00:00:19;100098.13;;;12.78;100.00
64253;BME280;50592;52.958;-7.470;2023-08-30T00:02:48;100097.78;;;12.73;100.00
64253;BME280;50592;52.958;-7.470;2023-08-30T00:05:14;100101.78;;;12.69;100.00
64253;BME280;50592;52.958;-7.470;2023-08-30T00:07:40;100102.13;;;12.65;100.00
64253;BME280;50592;52.958;-7.470;2023-08-30T00:10:07;100101.78;;;12.60;100.00
64253;BME280;50592;52.958;-7.470;2023-08-30T00:12:33;100105.09;;;12.54;100.00
64253;BME280;50592;52.958;-7.470;2023-08-30T00:14:59;100105.44;;;12.51;100.00
64253;BME280;50592;52.958;-7.470;2023-08-30T00:17:26;100101.94;;;12.50;100.00
64253;BME280;50592;52.958;-7.470;2023-08-30T00:19:51;100097.81;;;12.48;100.00
64253;BME280;50592;52.958;-7.470;2023-08-30T00:22:18;100100.28;;;12.49;100.00
64253;BME280;50592;52.958;-7.470;2023-08-30T00:24:44;100097.66;;;12.49;100.00
64253;BME280;50592;52.958;-7.470;2023-08-30T00:27:11;100093.66;;;12.53;100.00
64253;BME280;50592;52.958;-7.470;2023-08-30T00:29:38;100092.50;;;12.56;100.00
64253;BME280;50592;52.958;-7.470;2023-08-30T00:32:04;100091.84;;;12.54;100.00
64253;BME280;50592;52.958;-7.470;2023-08-30T00:34:29;100091.00;;;12.53;100.00
64253;BME280;50592;52.958;-7.470;2023-08-30T00:36:55;100096.16;;;12.55;100.00
64253;BME280;50592;52.958;-7.470;2023-08-30T00:39:21;100095.16;;;12.56;100.00
64253;BME280;50592;52.958;-7.470;2023-08-30T00:41:48;100096.81;;;12.57;100.00
64253;BME280;50592;52.958;-7.470;2023-08-30T00:44:14;100094.66;;;12.61;100.00
64253;BME280;50592;52.958;-7.470;2023-08-30T00:46:40;100094.50;;;12.62;100.00
64253;BME280;50592;52.958;-7.470;2023-08-30T00:49:06;100085.38;;;12.65;100.00
64253;BME280;50592;52.958;-7.470;2023-08-30T00:51:33;100086.53;;;12.71;100.00
64253;BME280;50592;52.958;-7.470;2023-08-30T00:54:02;100090.34;;;12.76;100.00
64253;BME280;50592;52.958;-7.470;2023-08-30T00:56:28;100082.38;;;12.76;100.00
64253;BME280;50592;52.958;-7.470;2023-08-30T00:58:54;100085.88;;;12.77;100.00
64253;BME280;50592;52.958;-7.470;2023-08-30T01:01:21;100083.06;;;12.78;100.00
64253;BME280;50592;52.958;-7.470;2023-08-30T01:03:47;100086.34;;;12.81;100.00
64253;BME280;50592;52.958;-7.470;2023-08-30T01:06:13;100085.38;;;12.82;100.00
64253;BME280;50592;52.958;-7.470;2023-08-30T01:08:41;100085.19;;;12.83;100.00
64253;BME280;50592;52.958;-7.470;2023-08-30T01:13:48;100084.69;;;12.88;100.00
64253;BME280;50592;52.958;-7.470;2023-08-30T01:16:16;100084.03;;;12.86;100.00
64253;BME280;50592;52.958;-7.470;2023-08-30T01:18:43;100078.72;;;12.86;100.00
64253;BME280;50592;52.958;-7.470;2023-08-30T01:21:18;100080.88;;;12.90;100.00
64253;BME280;50592;52.958;-7.470;2023-08-30T01:23:51;100081.38;;;12.86;100.00
64253;BME280;50592;52.958;-7.470;2023-08-30T01:26:45;100087.19;;;12.89;100.00
64253;BME280;50592;52.958;-7.470;2023-08-30T01:29:16;100087.81;;;12.92;100.00
64253;BME280;50592;52.958;-7.470;2023-08-30T01:31:45;100086.34;;;12.89;100.00
64253;BME280;50592;52.958;-7.470;2023-08-30T01:34:13;100088.31;;;12.87;100.00
64253;BME280;50592;52.958;-7.470;2023-08-30T01:36:41;100084.34;;;12.91;100.00
64253;BME280;50592;52.958;-7.470;2023-08-30T01:39:10;100084.19;;;12.93;100.00
64253;BME280;50592;52.958;-7.470;2023-08-30T01:41:37;100086.50;;;12.96;100.00
64253;BME280;50592;52.958;-7.470;2023-08-30T01:44:05;100081.19;;;12.96;100.00
64253;BME280;50592;52.958;-7.470;2023-08-30T01:46:33;100077.72;;;12.95;100.00
64253;BME280;50592;52.958;-7.470;2023-08-30T01:49:01;100078.38;;;12.97;100.00
64253;BME280;50592;52.958;-7.470;2023-08-30T01:51:29;100079.84;;;13.00;100.00
64253;BME280;50592;52.958;-7.470;2023-08-30T01:53:55;100074.38;;;13.01;100.00
64253;BME280;50592;52.958;-7.470;2023-08-30T01:56:22;100073.75;;;12.99;100.00
64253;BME280;50592;52.958;-7.470;2023-08-30T01:58:49;100072.91;;;12.99;100.00
64253;BME280;50592;52.958;-7.470;2023-08-30T02:41:44;100071.09;;;12.74;100.00
64253;BME280;50592;52.958;-7.470;2023-08-30T02:44:11;100072.63;;;12.77;100.00
64253;BME280;50592;52.958;-7.470;2023-08-30T02:46:37;100065.47;;;12.77;100.00
64253;BME280;50592;52.958;-7.470;2023-08-30T02:49:07;100057.69;;;12.76;100.00
64253;BME280;50592;52.958;-7.470;2023-08-30T02:51:33;100060.34;;;12.76;100.00
64253;BME280;50592;52.958;-7.470;2023-08-30T02:53:58;100056.88;;;12.75;100.00
64253;BME280;50592;52.958;-7.470;2023-08-30T02:56:24;100056.38;;;12.72;100.00
64253;BME280;50592;52.958;-7.470;2023-08-30T02:58:50;100052.06;;;12.71;100.00
64253;BME280;50592;52.958;-7.470;2023-08-30T03:01:16;100060.84;;;12.71;100.00
64253;BME280;50592;52.958;-7.470;2023-08-30T03:03:42;100050.41;;;12.70;100.00
64253;BME280;50592;52.958;-7.470;2023-08-30T03:06:08;100059.19;;;12.70;100.00
64253;BME280;50592;52.958;-7.470;2023-08-30T03:08:33;100059.19;;;12.70;100.00
64253;BME280;50592;52.958;-7.470;2023-08-30T03:11:10;100054.38;;;12.74;100.00
64253;BME280;50592;52.958;-7.470;2023-08-30T03:13:41;100051.41;;;12.69;100.00
64253;BME280;50592;52.958;-7.470;2023-08-30T03:16:14;100056.72;;;12.69;100.00
64253;BME280;50592;52.958;-7.470;2023-08-30T03:18:41;100054.91;;;12.69;100.00
64253;BME280;50592;52.958;-7.470;2023-08-30T03:21:07;100051.25;;;12.70;100.00
64253;BME280;50592;52.958;-7.470;2023-08-30T03:23:34;100052.88;;;12.71;100.00
64253;BME280;50592;52.958;-7.470;2023-08-30T03:26:27;100050.91;;;12.73;100.00
64253;BME280;50592;52.958;-7.470;2023-08-30T03:28:53;100049.59;;;12.69;100.00
64253;BME280;50592;52.958;-7.470;2023-08-30T03:31:20;100049.41;;;12.71;100.00
64253;BME280;50592;52.958;-7.470;2023-08-30T03:33:47;100048.41;;;12.72;100.00
64253;BME280;50592;52.958;-7.470;2023-08-30T03:36:15;100044.13;;;12.71;100.00
64253;BME280;50592;52.958;-7.470;2023-08-30T03:38:42;100035.31;;;12.70;100.00
64253;BME280;50592;52.958;-7.470;2023-08-30T03:41:09;100036.81;;;12.73;100.00
64253;BME280;50592;52.958;-7.470;2023-08-30T03:43:35;100035.81;;;12.74;100.00
64253;BME280;50592;52.958;-7.470;2023-08-30T03:46:02;100038.31;;;12.75;100.00
64253;BME280;50592;52.958;-7.470;2023-08-30T03:48:29;100044.09;;;12.79;100.00
64253;BME280;50592;52.958;-7.470;2023-08-30T03:50:55;100046.09;;;12.77;100.00
64253;BME280;50592;52.958;-7.470;2023-08-30T03:53:22;100039.63;;;12.80;100.00
64253;BME280;50592;52.958;-7.470;2023-08-30T03:55:48;100036.78;;;12.81;100.00
64253;BME280;50592;52.958;-7.470;2023-08-30T03:58:15;100026.50;;;12.86;100.00
64253;BME280;50592;52.958;-7.470;2023-08-30T04:00:40;100034.75;;;12.92;100.00
64253;BME280;50592;52.958;-7.470;2023-08-30T04:03:08;100030.63;;;12.97;100.00
64253;BME280;50592;52.958;-7.470;2023-08-30T04:05:36;100029.63;;;12.98;100.00
64253;BME280;50592;52.958;-7.470;2023-08-30T04:08:03;100027.47;;;13.02;100.00
64253;BME280;50592;52.958;-7.470;2023-08-30T04:10:29;100019.81;;;13.07;100.00
64253;BME280;50592;52.958;-7.470;2023-08-30T04:12:55;100022.31;;;13.09;100.00
64253;BME280;50592;52.958;-7.470;2023-08-30T04:15:20;100017.34;;;13.06;100.00
64253;BME280;50592;52.958;-7.470;2023-08-30T04:17:46;100019.16;;;13.05;100.00
64253;BME280;50592;52.958;-7.470;2023-08-30T04:20:12;100024.47;;;13.05;100.00
64253;BME280;50592;52.958;-7.470;2023-08-30T04:22:38;100025.47;;;13.04;100.00
64253;BME280;50592;52.958;-7.470;2023-08-30T04:25:04;100026.63;;;13.01;100.00
64253;BME280;50592;52.958;-7.470;2023-08-30T04:27:30;100028.63;;;12.99;100.00
64253;BME280;50592;52.958;-7.470;2023-08-30T04:29:56;100022.00;;;12.95;100.00
64253;BME280;50592;52.958;-7.470;2023-08-30T04:32:22;100017.22;;;12.90;100.00
64253;BME280;50592;52.958;-7.470;2023-08-30T04:34:47;100015.91;;;12.86;100.00
64253;BME280;50592;52.958;-7.470;2023-08-30T04:37:13;100011.75;;;12.84;100.00
64253;BME280;50592;52.958;-7.470;2023-08-30T04:39:40;100009.44;;;12.81;100.00
64253;BME280;50592;52.958;-7.470;2023-08-30T04:42:06;100008.97;;;12.77;100.00
64253;BME280;50592;52.958;-7.470;2023-08-30T04:44:32;100013.09;;;12.71;100.00
64253;BME280;50592;52.958;-7.470;2023-08-30T04:46:57;100012.47;;;12.69;100.00
64253;BME280;50592;52.958;-7.470;2023-08-30T04:49:23;100023.72;;;12.71;100.00
64253;BME280;50592;52.958;-7.470;2023-08-30T04:51:51;100017.78;;;12.69;100.00
64253;BME280;50592;52.958;-7.470;2023-08-30T04:54:17;100023.41;;;12.66;100.00
64253;BME280;50592;52.958;-7.470;2023-08-30T04:56:43;100019.41;;;12.62;100.00
64253;BME280;50592;52.958;-7.470;2023-08-30T04:59:09;100014.63;;;12.57;100.00
64253;BME280;50592;52.958;-7.470;2023-08-30T05:01:39;100018.63;;;12.53;100.00
64253;BME280;50592;52.958;-7.470;2023-08-30T05:04:07;100023.94;;;12.53;100.00
64253;BME280;50592;52.958;-7.470;2023-08-30T05:06:35;100017.28;;;12.49;100.00
64253;BME280;50592;52.958;-7.470;2023-08-30T05:09:01;100015.97;;;12.45;100.00
64253;BME280;50592;52.958;-7.470;2023-08-30T05:11:28;100010.66;;;12.45;100.00
64253;BME280;50592;52.958;-7.470;2023-08-30T05:13:54;100022.44;;;12.42;100.00
64253;BME280;50592;52.958;-7.470;2023-08-30T05:16:20;100014.66;;;12.40;100.00
64253;BME280;50592;52.958;-7.470;2023-08-30T05:18:47;100004.06;;;12.40;100.00
64253;BME280;50592;52.958;-7.470;2023-08-30T05:21:14;100008.53;;;12.40;100.00
64253;BME280;50592;52.958;-7.470;2023-08-30T05:23:40;100012.34;;;12.37;100.00
64253;BME280;50592;52.958;-7.470;2023-08-30T05:26:10;100017.94;;;12.34;100.00
64253;BME280;50592;52.958;-7.470;2023-08-30T05:28:38;100016.31;;;12.33;100.00
64253;BME280;50592;52.958;-7.470;2023-08-30T05:31:05;100018.44;;;12.30;100.00
64253;BME280;50592;52.958;-7.470;2023-08-30T05:33:50;100020.97;;;12.23;100.00
64253;BME280;50592;52.958;-7.470;2023-08-30T05:36:42;100015.00;;;12.21;100.00
64253;BME280;50592;52.958;-7.470;2023-08-30T05:39:26;100015.66;;;12.14;100.00
64253;BME280;50592;52.958;-7.470;2023-08-30T05:41:55;100014.34;;;12.10;100.00
64253;BME280;50592;52.958;-7.470;2023-08-30T05:44:21;100020.91;;;12.06;100.00
64253;BME280;50592;52.958;-7.470;2023-08-30T05:46:47;100016.09;;;12.01;100.00
64253;BME280;50592;52.958;-7.470;2023-08-30T05:49:13;100015.44;;;11.99;100.00
64253;BME280;50592;52.958;-7.470;2023-08-30T05:51:39;100026.88;;;12.00;100.00
64253;BME280;50592;52.958;-7.470;2023-08-30T05:54:04;100032.69;;;12.03;100.00
64253;BME280;50592;52.958;-7.470;2023-08-30T05:56:30;100025.91;;;12.09;100.00
64253;BME280;50592;52.958;-7.470;2023-08-30T05:58:56;100030.88;;;12.12;100.00
64253;BME280;50592;52.958;-7.470;2023-08-30T06:01:22;100032.38;;;12.15;100.00
64253;BME280;50592;52.958;-7.470;2023-08-30T06:03:48;100031.56;;;12.14;100.00
64253;BME280;50592;52.958;-7.470;2023-08-30T06:06:16;100025.75;;;12.19;100.00
64253;BME280;50592;52.958;-7.470;2023-08-30T06:08:42;100017.97;;;12.18;100.00
64253;BME280;50592;52.958;-7.470;2023-08-30T06:11:08;100025.75;;;12.19;100.00
64253;BME280;50592;52.958;-7.470;2023-08-30T06:13:34;100032.06;;;12.18;100.00
64253;BME280;50592;52.958;-7.470;2023-08-30T06:15:59;100038.34;;;12.17;100.00
64253;BME280;50592;52.958;-7.470;2023-08-30T06:18:29;100048.13;;;12.17;100.00
64253;BME280;50592;52.958;-7.470;2023-08-30T06:20:55;100041.97;;;12.16;100.00
64253;BME280;50592;52.958;-7.470;2023-08-30T06:23:20;100049.09;;;12.15;100.00
64253;BME280;50592;52.958;-7.470;2023-08-30T06:25:54;100043.13;;;12.22;100.00
64253;BME280;50592;52.958;-7.470;2023-08-30T06:28:20;100036.19;;;12.21;100.00
64253;BME280;50592;52.958;-7.470;2023-08-30T06:30:45;100037.19;;;12.20;100.00
64253;BME280;50592;52.958;-7.470;2023-08-30T06:33:11;100042.50;;;12.20;100.00
64253;BME280;50592;52.958;-7.470;2023-08-30T06:35:37;100051.91;;;12.22;100.00
64253;BME280;50592;52.958;-7.470;2023-08-30T06:38:06;100041.50;;;12.21;100.00
64253;BME280;50592;52.958;-7.470;2023-08-30T06:40:32;100040.31;;;12.23;100.00
64253;BME280;50592;52.958;-7.470;2023-08-30T06:42:58;100040.31;;;12.23;100.00
64253;BME280;50592;52.958;-7.470;2023-08-30T06:45:25;100033.53;;;12.29;100.00
64253;BME280;50592;52.958;-7.470;2023-08-30T06:47:51;100040.50;;;12.38;100.00
64253;BME280;50592;52.958;-7.470;2023-08-30T06:50:18;100029.56;;;12.50;100.00
64253;BME280;50592;52.958;-7.470;2023-08-30T06:52:44;100020.59;;;12.59;100.00
64253;BME280;50592;52.958;-7.470;2023-08-30T06:55:09;100027.38;;;12.62;100.00
64253;BME280;50592;52.958;-7.470;2023-08-30T06:57:35;100028.22;;;12.62;100.00
64253;BME280;50592;52.958;-7.470;2023-08-30T07:00:01;100027.88;;;12.65;100.00
64253;BME280;50592;52.958;-7.470;2023-08-30T07:02:34;100022.25;;;12.69;100.00
64253;BME280;50592;52.958;-7.470;2023-08-30T07:05:00;100015.94;;;12.70;100.00
64253;BME280;50592;52.958;-7.470;2023-08-30T07:07:26;100014.63;;;12.74;100.00
64253;BME280;50592;52.958;-7.470;2023-08-30T07:09:52;100019.91;;;12.74;100.00
64253;BME280;50592;52.958;-7.470;2023-08-30T07:12:18;100022.06;;;12.78;100.00
64253;BME280;50592;52.958;-7.470;2023-08-30T07:14:43;100013.41;;;12.85;100.00
64253;BME280;50592;52.958;-7.470;2023-08-30T07:17:09;100011.41;;;12.87;100.00
64253;BME280;50592;52.958;-7.470;2023-08-30T07:19:35;100007.59;;;12.89;100.00
64253;BME280;50592;52.958;-7.470;2023-08-30T07:22:00;100005.09;;;12.96;100.00
64253;BME280;50592;52.958;-7.470;2023-08-30T07:24:26;100006.91;;;13.04;100.00
64253;BME280;50592;52.958;-7.470;2023-08-30T07:26:52;100000.72;;;13.12;100.00
64253;BME280;50592;52.958;-7.470;2023-08-30T07:29:18;100004.69;;;13.16;100.00
64253;BME280;50592;52.958;-7.470;2023-08-30T07:31:43;100008.94;;;13.25;100.00
64253;BME280;50592;52.958;-7.470;2023-08-30T07:34:09;100008.09;;;13.33;100.00
64253;BME280;50592;52.958;-7.470;2023-08-30T07:36:35;100009.75;;;13.34;100.00
64253;BME280;50592;52.958;-7.470;2023-08-30T07:39:01;100022.16;;;13.42;100.00
64253;BME280;50592;52.958;-7.470;2023-08-30T07:41:27;100022.78;;;13.44;100.00
64253;BME280;50592;52.958;-7.470;2023-08-30T07:43:53;100021.47;;;13.48;100.00
64253;BME280;50592;52.958;-7.470;2023-08-30T07:46:18;100023.44;;;13.55;100.00
64253;BME280;50592;52.958;-7.470;2023-08-30T07:48:44;100023.41;;;13.63;100.00
64253;BME280;50592;52.958;-7.470;2023-08-30T07:51:10;100019.38;;;13.67;100.00
64253;BME280;50592;52.958;-7.470;2023-08-30T07:53:35;100024.00;;;13.73;100.00
64253;BME280;50592;52.958;-7.470;2023-08-30T07:56:01;100023.94;;;13.82;100.00
64253;BME280;50592;52.958;-7.470;2023-08-30T07:58:27;100030.19;;;13.89;100.00
64253;BME280;50592;52.958;-7.470;2023-08-30T08:00:53;100034.00;;;13.95;100.00
64253;BME280;50592;52.958;-7.470;2023-08-30T08:03:22;100028.16;;;13.99;100.00
64253;BME280;50592;52.958;-7.470;2023-08-30T08:05:47;100029.66;;;13.94;100.00
64253;BME280;50592;52.958;-7.470;2023-08-30T08:08:13;100036.66;;;13.95;100.00
64253;BME280;50592;52.958;-7.470;2023-08-30T08:10:41;100033.47;;;13.99;100.00
64253;BME280;50592;52.958;-7.470;2023-08-30T08:13:07;100042.59;;;13.97;100.00
64253;BME280;50592;52.958;-7.470;2023-08-30T08:15:33;100034.28;;;14.00;100.00
64253;BME280;50592;52.958;-7.470;2023-08-30T08:18:00;100030.94;;;14.06;100.00
64253;BME280;50592;52.958;-7.470;2023-08-30T08:20:28;100033.41;;;14.08;100.00
64253;BME280;50592;52.958;-7.470;2023-08-30T08:22:53;100035.34;;;14.14;100.00
64253;BME280;50592;52.958;-7.470;2023-08-30T08:25:19;100040.13;;;14.19;100.00
64253;BME280;50592;52.958;-7.470;2023-08-30T08:27:46;100038.28;;;14.19;100.00
64253;BME280;50592;52.958;-7.470;2023-08-30T08:30:12;100039.97;;;14.20;100.00
64253;BME280;50592;52.958;-7.470;2023-08-30T08:32:38;100035.28;;;14.22;100.00
64253;BME280;50592;52.958;-7.470;2023-08-30T08:35:04;100031.28;;;14.26;100.00
64253;BME280;50592;52.958;-7.470;2023-08-30T08:37:31;100040.06;;;14.27;100.00
64253;BME280;50592;52.958;-7.470;2023-08-30T08:39:57;100032.91;;;14.27;100.00
64253;BME280;50592;52.958;-7.470;2023-08-30T08:42:23;100042.03;;;14.33;100.00
64253;BME280;50592;52.958;-7.470;2023-08-30T08:44:54;100038.16;;;14.36;100.00
64253;BME280;50592;52.958;-7.470;2023-08-30T08:47:20;100046.81;;;14.38;100.00
64253;BME280;50592;52.958;-7.470;2023-08-30T08:49:47;100038.81;;;14.38;100.00
64253;BME280;50592;52.958;-7.470;2023-08-30T08:52:16;100036.59;;;14.42;100.00
64253;BME280;50592;52.958;-7.470;2023-08-30T08:54:43;100041.13;;;14.41;100.00
64253;BME280;50592;52.958;-7.470;2023-08-30T08:57:09;100038.91;;;14.45;100.00
64253;BME280;50592;52.958;-7.470;2023-08-30T08:59:35;100037.44;;;14.42;100.00
64253;BME280;50592;52.958;-7.470;2023-08-30T09:02:01;100038.28;;;14.43;100.00
64253;BME280;50592;52.958;-7.470;2023-08-30T09:04:30;100040.03;;;14.50;100.00
64253;BME280;50592;52.958;-7.470;2023-08-30T09:06:56;100032.59;;;14.46;100.00
64253;BME280;50592;52.958;-7.470;2023-08-30T09:09:22;100034.59;;;14.44;100.00
64253;BME280;50592;52.958;-7.470;2023-08-30T09:11:48;100031.78;;;14.45;100.00
64253;BME280;50592;52.958;-7.470;2023-08-30T09:14:14;100017.47;;;14.46;100.00
64253;BME280;50592;52.958;-7.470;2023-08-30T09:16:39;100016.56;;;14.54;100.00
64253;BME280;50592;52.958;-7.470;2023-08-30T09:19:05;100013.53;;;14.57;100.00
64253;BME280;50592;52.958;-7.470;2023-08-30T09:21:33;100016.09;;;14.66;100.00
64253;BME280;50592;52.958;-7.470;2023-08-30T09:23:59;100010.91;;;14.72;100.00
64253;BME280;50592;52.958;-7.470;2023-08-30T09:26:26;100020.34;;;14.75;100.00
64253;BME280;50592;52.958;-7.470;2023-08-30T09:29:07;100016.59;;;14.84;100.00
64253;BME280;50592;52.958;-7.470;2023-08-30T09:31:33;100008.34;;;14.94;100.00
64253;BME280;50592;52.958;-7.470;2023-08-30T09:33:58;100010.56;;;15.06;100.00
64253;BME280;50592;52.958;-7.470;2023-08-30T09:36:26;100005.41;;;15.19;100.00
64253;BME280;50592;52.958;-7.470;2023-08-30T09:38:52;100014.75;;;15.30;100.00
64253;BME280;50592;52.958;-7.470;2023-08-30T09:41:18;100012.09;;;15.30;100.00
64253;BME280;50592;52.958;-7.470;2023-08-30T09:43:44;100004.22;;;15.22;100.00
64253;BME280;50592;52.958;-7.470;2023-08-30T09:46:10;100010.88;;;15.33;100.00
64253;BME280;50592;52.958;-7.470;2023-08-30T09:48:37;100004.34;;;15.50;100.00
64253;BME280;50592;52.958;-7.470;2023-08-30T09:51:03;99997.88;;;15.60;100.00
64253;BME280;50592;52.958;-7.470;2023-08-30T09:53:44;100005.75;;;15.68;100.00
64253;BME280;50592;52.958;-7.470;2023-08-30T09:56:14;100005.44;;;15.78;100.00
64253;BME280;50592;52.958;-7.470;2023-08-30T09:58:41;100015.16;;;15.86;100.00
64253;BME280;50592;52.958;-7.470;2023-08-30T10:01:08;100014.13;;;16.02;100.00
64253;BME280;50592;52.958;-7.470;2023-08-30T10:03:35;100014.59;;;16.12;100.00
64253;BME280;50592;52.958;-7.470;2023-08-30T10:06:01;100018.13;;;16.20;100.00
64253;BME280;50592;52.958;-7.470;2023-08-30T10:08:31;100010.34;;;16.18;100.00
64253;BME280;50592;52.958;-7.470;2023-08-30T10:10:59;100013.06;;;16.25;100.00
64253;BME280;50592;52.958;-7.470;2023-08-30T10:13:25;100004.47;;;16.30;100.00
64253;BME280;50592;52.958;-7.470;2023-08-30T10:15:55;100011.91;;;16.34;100.00
64253;BME280;50592;52.958;-7.470;2023-08-30T10:18:25;100004.78;;;16.42;100.00
64253;BME280;50592;52.958;-7.470;2023-08-30T10:20:54;100008.66;;;16.39;100.00
64253;BME280;50592;52.958;-7.470;2023-08-30T10:23:21;100002.44;;;16.32;100.00
64253;BME280;50592;52.958;-7.470;2023-08-30T10:25:49;100007.78;;;16.32;100.00
64253;BME280;50592;52.958;-7.470;2023-08-30T10:28:19;100003.31;;;16.39;100.00
64253;BME280;50592;52.958;-7.470;2023-08-30T10:30:46;100001.03;;;16.36;100.00
64253;BME280;50592;52.958;-7.470;2023-08-30T10:33:13;100004.78;;;16.42;100.00
64253;BME280;50592;52.958;-7.470;2023-08-30T10:35:49;100002.72;;;16.44;100.00
64253;BME280;50592;52.958;-7.470;2023-08-30T10:38:29;100002.31;;;16.40;100.00
64253;BME280;50592;52.958;-7.470;2023-08-30T10:40:55;99997.56;;;16.35;100.00
64253;BME280;50592;52.958;-7.470;2023-08-30T10:43:28;99998.38;;;16.36;100.00
64253;BME280;50592;52.958;-7.470;2023-08-30T10:46:02;100002.91;;;16.35;100.00
64253;BME280;50592;52.958;-7.470;2023-08-30T10:48:39;100006.81;;;16.40;100.00
64253;BME280;50592;52.958;-7.470;2023-08-30T10:51:19;100001.72;;;16.45;100.00
64253;BME280;50592;52.958;-7.470;2023-08-30T10:53:58;100005.84;;;16.47;100.00
64253;BME280;50592;52.958;-7.470;2023-08-30T10:56:28;100001.75;;;16.52;100.00
64253;BME280;50592;52.958;-7.470;2023-08-30T10:58:55;100004.88;;;16.55;100.00
64253;BME280;50592;52.958;-7.470;2023-08-30T11:01:20;99998.09;;;16.53;100.00
64253;BME280;50592;52.958;-7.470;2023-08-30T11:03:47;100004.03;;;16.55;100.00
64253;BME280;50592;52.958;-7.470;2023-08-30T11:06:15;99993.66;;;16.67;100.00
64253;BME280;50592;52.958;-7.470;2023-08-30T11:08:43;99999.25;;;16.79;100.00
64253;BME280;50592;52.958;-7.470;2023-08-30T11:11:10;100000.53;;;16.83;100.00
64253;BME280;50592;52.958;-7.470;2023-08-30T11:13:40;100005.47;;;16.86;100.00
64253;BME280;50592;52.958;-7.470;2023-08-30T11:16:06;100000.09;;;16.79;100.00
64253;BME280;50592;52.958;-7.470;2023-08-30T11:18:37;100005.81;;;16.76;100.00
64253;BME280;50592;52.958;-7.470;2023-08-30T11:21:04;100001.88;;;16.65;100.00
64253;BME280;50592;52.958;-7.470;2023-08-30T11:23:30;100005.38;;;16.66;100.00
64253;BME280;50592;52.958;-7.470;2023-08-30T11:25:56;99996.09;;;16.61;100.00
64253;BME280;50592;52.958;-7.470;2023-08-30T11:28:23;99997.16;;;16.67;100.00
64253;BME280;50592;52.958;-7.470;2023-08-30T11:30:48;99990.19;;;16.73;100.00
64253;BME280;50592;52.958;-7.470;2023-08-30T11:33:17;99995.19;;;16.83;100.00
64253;BME280;50592;52.958;-7.470;2023-08-30T11:35:43;99985.31;;;16.83;100.00
64253;BME280;50592;52.958;-7.470;2023-08-30T11:38:10;99982.09;;;16.88;100.00
64253;BME280;50592;52.958;-7.470;2023-08-30T11:40:35;99984.56;;;16.96;100.00
64253;BME280;50592;52.958;-7.470;2023-08-30T11:43:02;99973.09;;;17.03;100.00
64253;BME280;50592;52.958;-7.470;2023-08-30T11:45:32;99975.00;;;17.09;100.00
64253;BME280;50592;52.958;-7.470;2023-08-30T11:48:00;99985.47;;;17.10;100.00
64253;BME280;50592;52.958;-7.470;2023-08-30T11:50:27;99977.91;;;17.14;100.00
64253;BME280;50592;52.958;-7.470;2023-08-30T11:52:53;99981.16;;;17.09;100.00
64253;BME280;50592;52.958;-7.470;2023-08-30T11:55:21;99987.94;;;17.12;100.00
64253;BME280;50592;52.958;-7.470;2023-08-30T11:57:50;99987.16;;;17.11;100.00
64253;BME280;50592;52.958;-7.470;2023-08-30T12:00:20;99987.38;;;17.17;100.00
64253;BME280;50592;52.958;-7.470;2023-08-30T12:02:46;99986.94;;;17.13;100.00
64253;BME280;50592;52.958;-7.470;2023-08-30T12:05:13;99989.38;;;17.08;100.00
64253;BME280;50592;52.958;-7.470;2023-08-30T12:07:39;99978.50;;;17.09;100.00
64253;BME280;50592;52.958;-7.470;2023-08-30T12:10:06;99977.09;;;17.20;100.00
64253;BME280;50592;52.958;-7.470;2023-08-30T12:12:33;99987.41;;;17.30;100.00
64253;BME280;50592;52.958;-7.470;2023-08-30T12:15:07;99989.91;;;17.39;100.00
64253;BME280;50592;52.958;-7.470;2023-08-30T12:17:35;99992.16;;;17.35;100.00
64253;BME280;50592;52.958;-7.470;2023-08-30T12:20:01;99991.91;;;17.30;100.00
64253;BME280;50592;52.958;-7.470;2023-08-30T12:22:38;99990.09;;;17.30;100.00
64253;BME280;50592;52.958;-7.470;2023-08-30T12:25:14;99982.88;;;17.24;100.00
64253;BME280;50592;52.958;-7.470;2023-08-30T12:27:41;99983.50;;;17.26;100.00
64253;BME280;50592;52.958;-7.470;2023-08-30T12:30:07;99972.81;;;17.26;100.00
64253;BME280;50592;52.958;-7.470;2023-08-30T12:32:33;99971.97;;;17.19;100.00
64253;BME280;50592;52.958;-7.470;2023-08-30T12:34:58;99971.16;;;17.18;100.00
64253;BME280;50592;52.958;-7.470;2023-08-30T12:37:24;99975.84;;;17.09;100.00
64253;BME280;50592;52.958;-7.470;2023-08-30T12:39:50;99974.44;;;17.14;100.00
64253;BME280;50592;52.958;-7.470;2023-08-30T12:42:15;99971.56;;;17.22;100.00
64253;BME280;50592;52.958;-7.470;2023-08-30T12:44:41;99974.25;;;17.29;100.00
64253;BME280;50592;52.958;-7.470;2023-08-30T12:47:07;99966.84;;;17.24;100.00
64253;BME280;50592;52.958;-7.470;2023-08-30T12:49:33;99962.53;;;17.23;100.00
64253;BME280;50592;52.958;-7.470;2023-08-30T12:51:58;99963.16;;;17.18;100.00
64253;BME280;50592;52.958;-7.470;2023-08-30T12:54:24;99968.44;;;17.11;100.00
64253;BME280;50592;52.958;-7.470;2023-08-30T12:56:50;99969.63;;;17.02;100.00
64253;BME280;50592;52.958;-7.470;2023-08-30T12:59:15;99962.81;;;16.99;100.00
64253;BME280;50592;52.958;-7.470;2023-08-30T13:01:41;99955.00;;;16.91;100.00
64253;BME280;50592;52.958;-7.470;2023-08-30T13:04:07;99958.63;;;16.83;100.00
64253;BME280;50592;52.958;-7.470;2023-08-30T13:06:33;99950.66;;;16.90;100.00
64253;BME280;50592;52.958;-7.470;2023-08-30T13:08:59;99951.13;;;17.01;100.00
64253;BME280;50592;52.958;-7.470;2023-08-30T13:11:25;99947.03;;;17.05;100.00
64253;BME280;50592;52.958;-7.470;2023-08-30T13:13:52;99949.75;;;17.11;100.00
64253;BME280;50592;52.958;-7.470;2023-08-30T13:16:18;99955.91;;;17.12;100.00